JBU001 KLAX-KLAS
Flight info
| Callsign | JBU001 |
|---|---|
| Flight time | 0h 43m |
| Altitude | 29000 |
| Route | ORCKA5 MISEN RNDRZ3 |
| Aircraft | A21N/M-SDE2E3FGHIRWXY/LB1 |
Departure
| Time | 2026-05-05 17:04 |
|---|---|
| Airport | Los Angeles International Airport (KLAX) |
Arrival
| Time | 2026-05-05 17:47 |
|---|---|
| Airport | Harry Reid International Airport (KLAS) |
| Time | Latitude | Longitude | Altitude | Speed | Heading |
|---|---|---|---|---|---|
| 2026-05-05 16:45 | 33.94714 | -118.40327 | 126 ft | 0 kts | 234° |
| 2026-05-05 16:58 | 33.94720 | -118.40317 | 115 ft | 2 kts | 234° |
| 2026-05-05 16:58 | 33.94730 | -118.40301 | 127 ft | 2 kts | 243° |
| 2026-05-05 16:58 | 33.94737 | -118.40282 | 123 ft | 2 kts | 292° |
| 2026-05-05 16:59 | 33.94732 | -118.40268 | 122 ft | 0 kts | 341° |
| 2026-05-05 17:01 | 33.94743 | -118.40264 | 125 ft | 6 kts | 8° |
| 2026-05-05 17:02 | 33.94839 | -118.40285 | 123 ft | 20 kts | 343° |
| 2026-05-05 17:02 | 33.94901 | -118.40225 | 124 ft | 19 kts | 72° |
| 2026-05-05 17:02 | 33.94924 | -118.40083 | 124 ft | 10 kts | 59° |
| 2026-05-05 17:02 | 33.95003 | -118.40070 | 123 ft | 15 kts | 355° |
| 2026-05-05 17:03 | 33.95018 | -118.40101 | 123 ft | 7 kts | 275° |
| 2026-05-05 17:03 | 33.95014 | -118.40176 | 124 ft | 10 kts | 263° |
| 2026-05-05 17:03 | 33.94998 | -118.40347 | 126 ft | 46 kts | 263° |
| 2026-05-05 17:03 | 33.94927 | -118.41063 | 126 ft | 121 kts | 263° |
| 2026-05-05 17:04 | 33.94796 | -118.42282 | 306 ft | 160 kts | 262° |
| 2026-05-05 17:04 | 33.94647 | -118.43639 | 1015 ft | 167 kts | 262° |
| 2026-05-05 17:04 | 33.94470 | -118.45055 | 1809 ft | 174 kts | 260° |
| 2026-05-05 17:04 | 33.94256 | -118.46511 | 2615 ft | 177 kts | 259° |
| 2026-05-05 17:05 | 33.94056 | -118.47981 | 3336 ft | 186 kts | 262° |
| 2026-05-05 17:05 | 33.93866 | -118.49591 | 3945 ft | 206 kts | 262° |
| 2026-05-05 17:05 | 33.93721 | -118.50785 | 4394 ft | 221 kts | 262° |
| 2026-05-05 17:05 | 33.93417 | -118.53381 | 5471 ft | 250 kts | 262° |
| 2026-05-05 17:06 | 33.93169 | -118.55488 | 6534 ft | 258 kts | 262° |
| 2026-05-05 17:06 | 33.92997 | -118.56929 | 7317 ft | 260 kts | 262° |
| 2026-05-05 17:06 | 33.92746 | -118.59085 | 8493 ft | 264 kts | 262° |
| 2026-05-05 17:06 | 33.92500 | -118.61304 | 9672 ft | 268 kts | 262° |
| 2026-05-05 17:07 | 33.91977 | -118.63479 | 10635 ft | 279 kts | 242° |
| 2026-05-05 17:07 | 33.90687 | -118.65355 | 11185 ft | 305 kts | 219° |
| 2026-05-05 17:07 | 33.88737 | -118.66517 | 11719 ft | 330 kts | 196° |
| 2026-05-05 17:07 | 33.86405 | -118.66622 | 12670 ft | 343 kts | 173° |
| 2026-05-05 17:08 | 33.84130 | -118.65608 | 13664 ft | 357 kts | 152° |
| 2026-05-05 17:08 | 33.82241 | -118.63590 | 14516 ft | 372 kts | 131° |
| 2026-05-05 17:08 | 33.81004 | -118.60788 | 15316 ft | 388 kts | 111° |
| 2026-05-05 17:08 | 33.80595 | -118.57527 | 16055 ft | 404 kts | 90° |
| 2026-05-05 17:09 | 33.81090 | -118.54151 | 16767 ft | 417 kts | 71° |
| 2026-05-05 17:09 | 33.82393 | -118.51041 | 17472 ft | 425 kts | 56° |
| 2026-05-05 17:09 | 33.84248 | -118.48242 | 18182 ft | 431 kts | 40° |
| 2026-05-05 17:09 | 33.86659 | -118.46122 | 18798 ft | 431 kts | 22° |
| 2026-05-05 17:10 | 33.89431 | -118.44757 | 19461 ft | 432 kts | 15° |
| 2026-05-05 17:10 | 33.92180 | -118.43210 | 20139 ft | 443 kts | 27° |
| 2026-05-05 17:10 | 33.94633 | -118.40901 | 20799 ft | 454 kts | 43° |
| 2026-05-05 17:10 | 33.96653 | -118.37940 | 21417 ft | 462 kts | 54° |
| 2026-05-05 17:11 | 33.98457 | -118.34701 | 22050 ft | 468 kts | 57° |
| 2026-05-05 17:11 | 34.00223 | -118.31382 | 22721 ft | 473 kts | 57° |
| 2026-05-05 17:11 | 34.02029 | -118.28029 | 23362 ft | 479 kts | 56° |
| 2026-05-05 17:11 | 34.03881 | -118.24670 | 23890 ft | 485 kts | 56° |
| 2026-05-05 17:12 | 34.05782 | -118.21278 | 24375 ft | 490 kts | 56° |
| 2026-05-05 17:12 | 34.07699 | -118.17882 | 24919 ft | 494 kts | 55° |
| 2026-05-05 17:12 | 34.09652 | -118.14428 | 25411 ft | 499 kts | 55° |
| 2026-05-05 17:12 | 34.11628 | -118.10932 | 25901 ft | 505 kts | 56° |
| 2026-05-05 17:13 | 34.13622 | -118.07401 | 26367 ft | 510 kts | 56° |
| 2026-05-05 17:13 | 34.15632 | -118.03834 | 26883 ft | 514 kts | 56° |
| 2026-05-05 17:13 | 34.17626 | -118.00294 | 27337 ft | 519 kts | 56° |
| 2026-05-05 17:13 | 34.19666 | -117.96666 | 27772 ft | 523 kts | 56° |
| 2026-05-05 17:14 | 34.21717 | -117.93016 | 28188 ft | 528 kts | 56° |
| 2026-05-05 17:14 | 34.23789 | -117.89324 | 28611 ft | 532 kts | 56° |
| 2026-05-05 17:14 | 34.25868 | -117.85615 | 29016 ft | 535 kts | 56° |
| 2026-05-05 17:14 | 34.27961 | -117.81877 | 29016 ft | 536 kts | 56° |
| 2026-05-05 17:15 | 34.32140 | -117.74407 | 29005 ft | 534 kts | 56° |
| 2026-05-05 17:15 | 34.36302 | -117.66988 | 28981 ft | 533 kts | 54° |
| 2026-05-05 17:16 | 34.40644 | -117.59747 | 28977 ft | 532 kts | 53° |
| 2026-05-05 17:16 | 34.45038 | -117.52460 | 28991 ft | 532 kts | 53° |
| 2026-05-05 17:17 | 34.49360 | -117.45216 | 29012 ft | 530 kts | 54° |
| 2026-05-05 17:17 | 34.53665 | -117.37966 | 29015 ft | 529 kts | 54° |
| 2026-05-05 17:18 | 34.57963 | -117.30713 | 29025 ft | 528 kts | 54° |
| 2026-05-05 17:18 | 34.62223 | -117.23511 | 29003 ft | 528 kts | 54° |
| 2026-05-05 17:19 | 34.66497 | -117.16270 | 28992 ft | 526 kts | 54° |
| 2026-05-05 17:19 | 34.70751 | -117.09048 | 28953 ft | 526 kts | 54° |
| 2026-05-05 17:20 | 34.75016 | -117.01794 | 28944 ft | 525 kts | 54° |
| 2026-05-05 17:20 | 34.79252 | -116.94574 | 28957 ft | 525 kts | 54° |
| 2026-05-05 17:21 | 34.83504 | -116.87312 | 28972 ft | 523 kts | 54° |
| 2026-05-05 17:22 | 34.89828 | -116.76483 | 28971 ft | 524 kts | 54° |
| 2026-05-05 17:22 | 34.94023 | -116.69241 | 28965 ft | 522 kts | 55° |
| 2026-05-05 17:23 | 34.98137 | -116.61931 | 28946 ft | 522 kts | 56° |
| 2026-05-05 17:23 | 35.02195 | -116.54707 | 28929 ft | 519 kts | 55° |
| 2026-05-05 17:24 | 35.06277 | -116.47448 | 28926 ft | 519 kts | 55° |
| 2026-05-05 17:24 | 35.10419 | -116.40264 | 28926 ft | 516 kts | 50° |
| 2026-05-05 17:25 | 35.15281 | -116.33875 | 28569 ft | 506 kts | 45° |
| 2026-05-05 17:25 | 35.16882 | -116.31810 | 28238 ft | 502 kts | 45° |
| 2026-05-05 17:25 | 35.20033 | -116.27734 | 27455 ft | 493 kts | 45° |
| 2026-05-05 17:25 | 35.22375 | -116.24700 | 26802 ft | 488 kts | 45° |
| 2026-05-05 17:26 | 35.24670 | -116.21671 | 26162 ft | 482 kts | 47° |
| 2026-05-05 17:26 | 35.26887 | -116.18629 | 25604 ft | 474 kts | 47° |
| 2026-05-05 17:26 | 35.29056 | -116.15623 | 25001 ft | 468 kts | 47° |
| 2026-05-05 17:26 | 35.31196 | -116.12660 | 24395 ft | 462 kts | 47° |
| 2026-05-05 17:27 | 35.33322 | -116.09728 | 23823 ft | 456 kts | 47° |
| 2026-05-05 17:27 | 35.35392 | -116.06877 | 23260 ft | 449 kts | 47° |
| 2026-05-05 17:27 | 35.37463 | -116.04029 | 22592 ft | 443 kts | 47° |
| 2026-05-05 17:27 | 35.39509 | -116.01215 | 21930 ft | 438 kts | 47° |
| 2026-05-05 17:28 | 35.41530 | -115.98433 | 21284 ft | 433 kts | 47° |
| 2026-05-05 17:28 | 35.43520 | -115.95693 | 20687 ft | 426 kts | 47° |
| 2026-05-05 17:28 | 35.45457 | -115.93024 | 20077 ft | 421 kts | 47° |
| 2026-05-05 17:28 | 35.47396 | -115.90348 | 19457 ft | 417 kts | 47° |
| 2026-05-05 17:29 | 35.49317 | -115.87697 | 18844 ft | 412 kts | 47° |
| 2026-05-05 17:29 | 35.51213 | -115.85076 | 18281 ft | 406 kts | 47° |
| 2026-05-05 17:29 | 35.53075 | -115.82502 | 17777 ft | 398 kts | 47° |
| 2026-05-05 17:29 | 35.54855 | -115.80037 | 17594 ft | 381 kts | 47° |
| 2026-05-05 17:30 | 35.56579 | -115.77647 | 17437 ft | 365 kts | 47° |
| 2026-05-05 17:30 | 35.58231 | -115.75355 | 17267 ft | 351 kts | 48° |
| 2026-05-05 17:30 | 35.59303 | -115.73868 | 17015 ft | 347 kts | 47° |
| 2026-05-05 17:30 | 35.61450 | -115.70945 | 16404 ft | 342 kts | 47° |
| 2026-05-05 17:31 | 35.63056 | -115.68791 | 15987 ft | 338 kts | 47° |
| 2026-05-05 17:31 | 35.64620 | -115.66693 | 15586 ft | 334 kts | 47° |
| 2026-05-05 17:31 | 35.66186 | -115.64585 | 15144 ft | 332 kts | 47° |
| 2026-05-05 17:31 | 35.67735 | -115.62493 | 14757 ft | 328 kts | 47° |
| 2026-05-05 17:32 | 35.69273 | -115.60415 | 14301 ft | 326 kts | 47° |
| 2026-05-05 17:32 | 35.70775 | -115.58383 | 13897 ft | 323 kts | 48° |
| 2026-05-05 17:32 | 35.72317 | -115.56383 | 13422 ft | 320 kts | 43° |
| 2026-05-05 17:32 | 35.74075 | -115.54725 | 13084 ft | 314 kts | 31° |
| 2026-05-05 17:33 | 35.75972 | -115.53402 | 13014 ft | 314 kts | 29° |
| 2026-05-05 17:33 | 35.77901 | -115.52062 | 13016 ft | 320 kts | 29° |
| 2026-05-05 17:33 | 35.79820 | -115.50714 | 13004 ft | 319 kts | 30° |
| 2026-05-05 17:33 | 35.81745 | -115.49359 | 13015 ft | 318 kts | 30° |
| 2026-05-05 17:34 | 35.83668 | -115.48004 | 13018 ft | 318 kts | 30° |
| 2026-05-05 17:34 | 35.85593 | -115.46650 | 13023 ft | 319 kts | 30° |
| 2026-05-05 17:34 | 35.87519 | -115.45295 | 13017 ft | 318 kts | 30° |
| 2026-05-05 17:34 | 35.89445 | -115.43939 | 13013 ft | 319 kts | 30° |
| 2026-05-05 17:35 | 35.91371 | -115.42584 | 12998 ft | 318 kts | 30° |
| 2026-05-05 17:35 | 35.93296 | -115.41238 | 13005 ft | 318 kts | 30° |
| 2026-05-05 17:35 | 35.95232 | -115.39887 | 12849 ft | 321 kts | 30° |
| 2026-05-05 17:35 | 35.97167 | -115.38537 | 12512 ft | 320 kts | 30° |
| 2026-05-05 17:36 | 35.99098 | -115.37187 | 12124 ft | 317 kts | 31° |
| 2026-05-05 17:36 | 36.00746 | -115.35442 | 11727 ft | 310 kts | 55° |
| 2026-05-05 17:36 | 36.01637 | -115.33088 | 11386 ft | 300 kts | 81° |
| 2026-05-05 17:36 | 36.01717 | -115.30564 | 11118 ft | 299 kts | 96° |
| 2026-05-05 17:37 | 36.01500 | -115.28002 | 10794 ft | 299 kts | 99° |
| 2026-05-05 17:37 | 36.01333 | -115.26314 | 10571 ft | 296 kts | 99° |
| 2026-05-05 17:37 | 36.01054 | -115.23041 | 10151 ft | 293 kts | 97° |
| 2026-05-05 17:37 | 36.00888 | -115.20522 | 9812 ft | 293 kts | 96° |
| 2026-05-05 17:38 | 36.00752 | -115.18027 | 9461 ft | 288 kts | 96° |
| 2026-05-05 17:38 | 36.00630 | -115.15549 | 9145 ft | 289 kts | 95° |
| 2026-05-05 17:38 | 36.00508 | -115.13080 | 9023 ft | 287 kts | 95° |
| 2026-05-05 17:38 | 36.00451 | -115.10623 | 9014 ft | 289 kts | 85° |
| 2026-05-05 17:39 | 36.01095 | -115.08271 | 9021 ft | 293 kts | 59° |
| 2026-05-05 17:39 | 36.02330 | -115.06358 | 9007 ft | 285 kts | 57° |
| 2026-05-05 17:39 | 36.03050 | -115.04201 | 8987 ft | 263 kts | 85° |
| 2026-05-05 17:39 | 36.02896 | -115.02051 | 8830 ft | 247 kts | 110° |
| 2026-05-05 17:40 | 36.02314 | -115.00059 | 8438 ft | 247 kts | 107° |
| 2026-05-05 17:40 | 36.02145 | -114.97988 | 8066 ft | 245 kts | 91° |
| 2026-05-05 17:40 | 36.01752 | -114.95962 | 7718 ft | 244 kts | 121° |
| 2026-05-05 17:40 | 36.00588 | -114.94526 | 7532 ft | 231 kts | 153° |
| 2026-05-05 17:41 | 35.99174 | -114.93699 | 7304 ft | 223 kts | 145° |
| 2026-05-05 17:41 | 35.98217 | -114.92283 | 6957 ft | 223 kts | 113° |
| 2026-05-05 17:41 | 35.98049 | -114.90355 | 6601 ft | 224 kts | 78° |
| 2026-05-05 17:41 | 35.98776 | -114.88669 | 6240 ft | 227 kts | 43° |
| 2026-05-05 17:42 | 36.00162 | -114.87755 | 5898 ft | 228 kts | 7° |
| 2026-05-05 17:42 | 36.01687 | -114.87832 | 5774 ft | 214 kts | 347° |
| 2026-05-05 17:42 | 36.03182 | -114.88198 | 5797 ft | 229 kts | 341° |
| 2026-05-05 17:42 | 36.04568 | -114.89161 | 5772 ft | 228 kts | 319° |
| 2026-05-05 17:43 | 36.05746 | -114.90426 | 5705 ft | 220 kts | 316° |
| 2026-05-05 17:43 | 36.06801 | -114.91756 | 5430 ft | 215 kts | 298° |
| 2026-05-05 17:43 | 36.07294 | -114.93477 | 5087 ft | 212 kts | 275° |
| 2026-05-05 17:43 | 36.07375 | -114.94677 | 4883 ft | 210 kts | 269° |
| 2026-05-05 17:44 | 36.07363 | -114.96518 | 4448 ft | 216 kts | 266° |
| 2026-05-05 17:44 | 36.07366 | -114.98397 | 3953 ft | 224 kts | 268° |
| 2026-05-05 17:44 | 36.07362 | -115.00289 | 3789 ft | 213 kts | 268° |
| 2026-05-05 17:44 | 36.07367 | -115.02005 | 3779 ft | 186 kts | 267° |
| 2026-05-05 17:45 | 36.07366 | -115.03579 | 3773 ft | 178 kts | 267° |
| 2026-05-05 17:45 | 36.07368 | -115.05089 | 3464 ft | 170 kts | 266° |
| 2026-05-05 17:45 | 36.07367 | -115.06350 | 3260 ft | 157 kts | 266° |
| 2026-05-05 17:45 | 36.07367 | -115.07620 | 3047 ft | 139 kts | 266° |
| 2026-05-05 17:46 | 36.07367 | -115.08786 | 2874 ft | 138 kts | 265° |
| 2026-05-05 17:46 | 36.07365 | -115.09971 | 2635 ft | 135 kts | 266° |
| 2026-05-05 17:46 | 36.07377 | -115.11129 | 2450 ft | 134 kts | 265° |
| 2026-05-05 17:46 | 36.07365 | -115.12302 | 2289 ft | 136 kts | 265° |
| 2026-05-05 17:47 | 36.07369 | -115.13425 | 2188 ft | 124 kts | 265° |
| 2026-05-05 17:47 | 36.07359 | -115.14285 | 2191 ft | 73 kts | 271° |
| 2026-05-05 17:47 | 36.07365 | -115.14692 | 2190 ft | 32 kts | 274° |
| 2026-05-05 17:47 | 36.07419 | -115.14932 | 2191 ft | 24 kts | 294° |
| 2026-05-05 17:48 | 36.07447 | -115.14999 | 2191 ft | 1 kts | 300° |
| 2026-05-05 17:48 | 36.07451 | -115.15007 | 2191 ft | 0 kts | 299° |
| 2026-05-05 17:48 | 36.07458 | -115.15024 | 2191 ft | 5 kts | 299° |
| 2026-05-05 17:48 | 36.07488 | -115.15081 | 2188 ft | 10 kts | 309° |
| 2026-05-05 17:49 | 36.07555 | -115.15146 | 2192 ft | 14 kts | 328° |
| 2026-05-05 17:49 | 36.07650 | -115.15204 | 2190 ft | 17 kts | 335° |
| 2026-05-05 17:49 | 36.07743 | -115.15256 | 2189 ft | 14 kts | 341° |
| 2026-05-05 17:49 | 36.07831 | -115.15197 | 2191 ft | 15 kts | 70° |
| 2026-05-05 17:50 | 36.07857 | -115.15101 | 2189 ft | 9 kts | 25° |
| 2026-05-05 17:50 | 36.07951 | -115.15112 | 2189 ft | 26 kts | 357° |
| 2026-05-05 17:50 | 36.08115 | -115.15099 | 2190 ft | 17 kts | 25° |
| 2026-05-05 17:50 | 36.08214 | -115.14984 | 2191 ft | 21 kts | 48° |
| 2026-05-05 17:51 | 36.08257 | -115.14910 | 2190 ft | 6 kts | 57° |
| 2026-05-05 17:51 | 36.08273 | -115.14879 | 2189 ft | 0 kts | 54° |
| 2026-05-05 17:51 | 36.08274 | -115.14877 | 2190 ft | 0 kts | 54° |